Time;durP1;ratioP1;P1;durP2;ratioP2;P2;SDS_P1;SDS_P2;PMS_P1;PMS_P2;Temp;Humidity;BMP_temperature;BMP_pressure;BME280_temperature;BME280_humidity;BME280_pressure;Samples;Min_cycle;Max_cycle;Signal;HPM_P1;HPM_P2
2023/07/03 00:00:12;;;;;;;11.00;4.15;;;;;;;17.59;49.73;100769.84;7391331;19;20547;-52
2023/07/03 00:02:39;;;;;;;10.63;4.00;;;;;;;17.61;49.79;100773.22;7391120;19;20040;-55
2023/07/03 00:05:08;;;;;;;10.45;4.05;;;;;;;17.60;49.55;100772.41;7388558;19;20629;-53
2023/07/03 00:07:37;;;;;;;11.63;4.25;;;;;;;17.62;49.66;100762.34;7391083;19;20100;-52
2023/07/03 00:10:05;;;;;;;10.13;4.00;;;;;;;17.56;49.97;100762.16;7388735;19;20022;-48
2023/07/03 00:12:32;;;;;;;10.38;4.22;;;;;;;17.59;49.79;100765.38;7388879;19;20015;-52
2023/07/03 00:15:00;;;;;;;10.30;4.03;;;;;;;17.53;49.89;100761.47;7389082;19;20382;-55
2023/07/03 00:17:28;;;;;;;9.65;4.00;;;;;;;17.52;50.11;100764.31;7391437;19;20312;-53
2023/07/03 00:19:55;;;;;;;9.18;3.83;;;;;;;17.58;50.11;100763.66;7390189;19;20014;-49
2023/07/03 00:22:23;;;;;;;10.43;3.72;;;;;;;17.56;49.97;100771.03;7390148;19;20097;-53
2023/07/03 00:24:50;;;;;;;11.52;4.13;;;;;;;17.60;50.08;100767.03;7388678;19;20667;-53
2023/07/03 00:27:18;;;;;;;11.30;4.28;;;;;;;17.60;49.71;100763.53;7390509;19;20023;-53
2023/07/03 00:29:45;;;;;;;12.30;4.20;;;;;;;17.60;49.92;100755.50;7390202;19;20022;-55
2023/07/03 00:32:12;;;;;;;10.00;3.92;;;;;;;17.54;49.67;100757.78;7388675;19;20017;-52
2023/07/03 00:34:40;;;;;;;9.65;3.75;;;;;;;17.57;49.73;100748.59;7388912;19;20010;-52
2023/07/03 00:37:07;;;;;;;12.32;4.47;;;;;;;17.51;50.05;100750.09;7389682;19;20022;-52
2023/07/03 00:39:34;;;;;;;10.50;4.00;;;;;;;17.57;50.19;100753.13;7392086;19;20026;-54
2023/07/03 00:42:02;;;;;;;8.85;3.95;;;;;;;17.59;50.07;100754.66;7397915;19;20025;-54
2023/07/03 00:44:30;;;;;;;10.90;3.97;;;;;;;17.60;49.85;100750.97;7396502;19;20101;-53
2023/07/03 00:46:57;;;;;;;11.25;4.15;;;;;;;17.58;49.94;100754.78;7395594;19;20027;-54
2023/07/03 00:49:25;;;;;;;11.73;4.18;;;;;;;17.56;50.13;100744.25;7400078;19;20034;-59
2023/07/03 00:51:55;;;;;;;10.65;4.32;;;;;;;17.54;50.17;100752.44;7395363;19;20074;-58
2023/07/03 00:54:23;;;;;;;9.82;4.00;;;;;;;17.56;50.31;100748.78;7396479;19;20074;-58
2023/07/03 00:56:51;;;;;;;12.18;4.35;;;;;;;17.59;50.49;100751.97;7395985;19;20105;-59
2023/07/03 00:59:18;;;;;;;11.98;4.03;;;;;;;17.59;50.79;100749.28;7397170;19;20028;-59
2023/07/03 01:01:57;;;;;;;12.32;4.07;;;;;;;17.54;50.79;100754.28;7397026;19;20039;-60
2023/07/03 01:04:40;;;;;;;14.60;4.60;;;;;;;17.54;50.86;100754.28;7393943;19;20484;-55
2023/07/03 01:07:12;;;;;;;10.68;4.35;;;;;;;17.50;50.77;100750.22;7394696;19;20014;-57
2023/07/03 01:09:51;;;;;;;12.25;4.53;;;;;;;17.54;50.86;100746.22;7394374;19;20015;-57
2023/07/03 01:12:21;;;;;;;10.90;4.00;;;;;;;17.50;51.04;100747.56;7392898;19;20026;-57
2023/07/03 01:14:49;;;;;;;12.00;4.82;;;;;;;17.50;51.14;100750.22;7390967;19;20022;-56
2023/07/03 01:17:18;;;;;;;9.55;4.20;;;;;;;17.49;50.75;100752.06;7396900;19;20026;-57
2023/07/03 01:19:48;;;;;;;9.45;4.22;;;;;;;17.55;50.63;100747.91;7396895;19;20047;-57
2023/07/03 01:22:38;;;;;;;11.68;4.22;;;;;;;17.55;51.28;100747.91;7396144;19;20043;-57
2023/07/03 01:25:12;;;;;;;12.02;4.20;;;;;;;17.57;51.30;100745.09;7394199;19;20019;-57
2023/07/03 01:27:42;;;;;;;12.27;4.70;;;;;;;17.55;51.02;100737.19;7396517;19;20022;-57
2023/07/03 01:30:15;;;;;;;11.55;4.22;;;;;;;17.51;51.42;100735.84;7395796;19;20015;-57
2023/07/03 01:32:46;;;;;;;12.52;4.85;;;;;;;17.52;51.33;100743.72;7394229;19;20036;-57
2023/07/03 01:35:15;;;;;;;13.98;4.57;;;;;;;17.54;51.40;100735.53;7392178;19;20431;-55
2023/07/03 01:37:48;;;;;;;10.70;4.43;;;;;;;17.53;51.61;100737.38;7395663;19;20015;-53
2023/07/03 01:40:21;;;;;;;9.98;4.47;;;;;;;17.51;52.00;100739.38;7396038;19;20057;-52
2023/07/03 01:42:50;;;;;;;10.43;4.35;;;;;;;17.49;51.82;100737.84;7395942;19;20029;-51
2023/07/03 01:45:17;;;;;;;15.80;5.07;;;;;;;17.49;51.77;100722.63;7393453;19;20018;-53
2023/07/03 01:47:44;;;;;;;11.57;4.10;;;;;;;17.37;52.43;100726.56;7395457;19;20022;-57
2023/07/03 01:50:16;;;;;;;10.43;4.20;;;;;;;17.32;52.58;100726.19;7398188;19;20043;-52
2023/07/03 01:52:54;;;;;;;9.82;4.25;;;;;;;17.32;52.58;100730.69;7393915;19;20011;-54
2023/07/03 01:55:33;;;;;;;12.57;4.30;;;;;;;17.33;52.57;100724.38;7392996;19;20014;-56
2023/07/03 01:58:11;;;;;;;17.45;4.65;;;;;;;17.27;52.83;100723.97;7394712;19;20018;-56
2023/07/03 02:00:48;;;;;;;11.60;4.90;;;;;;;17.22;52.97;100723.63;7395485;19;20240;-55
2023/07/03 02:03:36;;;;;;;11.60;4.47;;;;;;;17.26;52.99;100724.16;7395477;19;20018;-56
2023/07/03 02:06:20;;;;;;;13.07;5.10;;;;;;;17.21;53.10;100713.09;7392246;19;20496;-55
2023/07/03 02:08:49;;;;;;;13.30;5.10;;;;;;;17.23;53.02;100716.44;7394835;19;20078;-56
2023/07/03 02:11:18;;;;;;;13.02;4.82;;;;;;;17.20;53.22;100714.06;7394482;19;21859;-55
2023/07/03 02:13:46;;;;;;;14.43;4.90;;;;;;;17.22;53.33;100717.44;7394947;19;20023;-56
2023/07/03 02:16:15;;;;;;;13.02;4.72;;;;;;;17.22;53.58;100720.94;7394482;19;20015;-57
2023/07/03 02:18:43;;;;;;;12.73;4.65;;;;;;;17.22;53.80;100714.75;7394749;19;20050;-57
2023/07/03 02:21:11;;;;;;;13.18;4.72;;;;;;;17.15;54.00;100716.38;7394673;19;20026;-58
2023/07/03 02:23:38;;;;;;;12.60;4.75;;;;;;;17.21;54.32;100713.09;7394079;19;20020;-58
2023/07/03 02:26:05;;;;;;;13.15;4.78;;;;;;;17.16;54.32;100707.34;7390929;19;20033;-58
2023/07/03 02:28:32;;;;;;;12.80;4.60;;;;;;;17.20;54.59;100716.75;7394705;19;20439;-57
2023/07/03 02:30:59;;;;;;;16.95;5.50;;;;;;;17.21;54.85;100716.59;7394411;19;20059;-56
2023/07/03 02:33:27;;;;;;;11.68;5.10;;;;;;;17.26;54.59;100711.59;7391958;19;20048;-57
2023/07/03 02:35:55;;;;;;;14.82;5.10;;;;;;;17.20;54.98;100712.22;7389659;19;20010;-57
2023/07/03 02:38:22;;;;;;;14.07;5.00;;;;;;;17.16;55.47;100705.50;7392262;19;20023;-57
2023/07/03 02:40:49;;;;;;;10.27;4.30;;;;;;;17.13;55.62;100699.63;7394120;19;20021;-57
2023/07/03 02:43:16;;;;;;;13.82;5.25;;;;;;;17.10;55.64;100699.97;7393163;19;20028;-57
2023/07/03 02:45:43;;;;;;;14.07;5.45;;;;;;;17.03;56.13;100699.75;7391271;19;20025;-56
2023/07/03 02:48:11;;;;;;;14.00;5.13;;;;;;;17.04;56.17;100696.06;7393615;19;20018;-57
2023/07/03 02:50:39;;;;;;;15.75;5.47;;;;;;;17.03;56.31;100686.38;7393306;19;20014;-57
2023/07/03 02:53:07;;;;;;;14.13;5.43;;;;;;;17.04;56.25;100694.22;7391583;19;20040;-57
2023/07/03 02:55:34;;;;;;;13.35;5.18;;;;;;;17.02;56.32;100695.41;7389622;19;20136;-56
2023/07/03 02:58:01;;;;;;;13.05;5.38;;;;;;;17.03;56.53;100681.00;7393756;19;20038;-56
2023/07/03 03:00:29;;;;;;;13.63;4.75;;;;;;;17.01;56.78;100683.00;7393079;19;20051;-57
2023/07/03 03:02:56;;;;;;;18.63;5.43;;;;;;;16.99;57.11;100691.19;7391100;19;20019;-57
2023/07/03 03:05:23;;;;;;;14.73;5.32;;;;;;;16.99;57.28;100695.69;7390957;19;20019;-58
2023/07/03 03:07:50;;;;;;;17.08;5.47;;;;;;;17.05;57.00;100695.06;7392558;19;20090;-58
2023/07/03 03:10:18;;;;;;;13.52;5.22;;;;;;;17.05;56.84;100689.72;7392936;19;20015;-58
2023/07/03 03:12:45;;;;;;;13.60;5.75;;;;;;;17.03;57.37;100683.69;7391185;19;20018;-58
2023/07/03 03:15:12;;;;;;;12.93;5.60;;;;;;;17.01;57.61;100675.81;7390896;19;20014;-58
2023/07/03 03:17:39;;;;;;;15.27;5.32;;;;;;;17.02;57.64;100685.53;7392305;19;20014;-59
2023/07/03 03:20:08;;;;;;;14.88;5.20;;;;;;;17.00;57.71;100678.66;7392247;19;20031;-60
2023/07/03 03:22:35;;;;;;;11.90;5.10;;;;;;;16.93;57.94;100680.25;7392707;19;20026;-54
2023/07/03 03:25:03;;;;;;;17.83;5.85;;;;;;;16.93;57.92;100682.94;7390750;19;20015;-58
2023/07/03 03:27:31;;;;;;;13.00;5.35;;;;;;;16.92;58.39;100687.44;7392149;19;20116;-61
2023/07/03 03:29:58;;;;;;;15.88;5.60;;;;;;;17.02;57.98;100679.34;7390927;19;20043;-59
2023/07/03 03:32:27;;;;;;;14.75;5.30;;;;;;;17.03;58.09;100678.34;7391000;19;20019;-59
2023/07/03 03:34:55;;;;;;;14.45;5.30;;;;;;;17.08;58.01;100680.53;7388759;19;20029;-58
2023/07/03 03:37:22;;;;;;;14.45;5.57;;;;;;;17.09;57.84;100677.69;7390105;19;20022;-57
2023/07/03 03:39:49;;;;;;;16.92;5.03;;;;;;;17.00;58.19;100674.13;7392170;19;20130;-58
2023/07/03 03:42:17;;;;;;;16.48;5.40;;;;;;;16.99;58.37;100676.97;7390096;19;20018;-58
2023/07/03 03:44:44;;;;;;;15.50;5.75;;;;;;;17.09;58.21;100672.34;7390440;19;20026;-59
2023/07/03 03:47:11;;;;;;;16.08;5.15;;;;;;;17.02;58.35;100672.16;7391477;19;20056;-58
2023/07/03 03:49:39;;;;;;;15.30;5.30;;;;;;;17.07;58.36;100669.00;7394503;19;20025;-58
2023/07/03 03:52:07;;;;;;;16.27;5.13;;;;;;;17.04;58.54;100683.53;7391319;19;20372;-59
2023/07/03 03:54:34;;;;;;;15.45;5.30;;;;;;;17.05;58.71;100685.19;7390670;19;20024;-58
2023/07/03 03:57:01;;;;;;;14.48;5.47;;;;;;;17.10;58.76;100682.06;7390983;19;20429;-55
2023/07/03 03:59:28;;;;;;;15.23;4.93;;;;;;;17.09;58.95;100688.41;7391789;19;20064;-56
2023/07/03 04:01:56;;;;;;;15.10;5.22;;;;;;;17.12;58.97;100687.25;7391023;19;20480;-56
2023/07/03 04:04:23;;;;;;;14.75;5.00;;;;;;;17.09;59.00;100691.06;7390643;19;20027;-55
2023/07/03 04:06:52;;;;;;;17.77;5.85;;;;;;;17.14;58.77;100686.09;7390347;19;20495;-55
2023/07/03 04:09:19;;;;;;;14.20;4.93;;;;;;;17.11;58.99;100682.91;7390646;19;20019;-56
2023/07/03 04:11:46;;;;;;;14.57;5.07;;;;;;;17.08;59.45;100681.38;7390490;19;20014;-54
2023/07/03 04:14:15;;;;;;;14.60;5.63;;;;;;;17.18;59.42;100687.47;7387338;19;20488;-57
2023/07/03 04:16:43;;;;;;;19.42;5.20;;;;;;;17.21;59.36;100680.97;7390063;19;20018;-55
2023/07/03 04:19:10;;;;;;;15.57;5.00;;;;;;;17.22;59.39;100682.66;7390980;19;20538;-55
2023/07/03 04:21:40;;;;;;;15.65;4.60;;;;;;;17.28;59.51;100684.66;7390708;19;20074;-55
2023/07/03 04:24:07;;;;;;;14.85;4.85;;;;;;;17.31;59.83;100676.31;7390051;19;20014;-56
2023/07/03 04:26:38;;;;;;;17.02;5.07;;;;;;;17.29;59.67;100681.84;7389625;19;20030;-57
2023/07/03 04:29:05;;;;;;;14.25;5.00;;;;;;;17.25;60.04;100683.16;7390261;19;20014;-56
2023/07/03 04:31:33;;;;;;;18.52;5.20;;;;;;;17.34;59.74;100685.88;7390149;19;20523;-57
2023/07/03 04:34:01;;;;;;;14.93;5.22;;;;;;;17.36;60.13;100695.44;7388646;19;20106;-56
2023/07/03 04:36:28;;;;;;;16.00;5.05;;;;;;;17.36;60.06;100684.75;7389811;19;20019;-60
2023/07/03 04:38:57;;;;;;;18.27;5.57;;;;;;;17.29;60.65;100689.88;7389646;19;20022;-60
2023/07/03 04:41:27;;;;;;;16.02;5.40;;;;;;;17.30;60.47;100685.38;7390104;19;20029;-60
2023/07/03 04:43:57;;;;;;;15.27;5.30;;;;;;;17.25;61.48;100693.88;7389573;19;20074;-60
2023/07/03 04:46:28;;;;;;;16.42;5.88;;;;;;;17.24;61.58;100707.41;7389246;19;20018;-59
2023/07/03 04:48:59;;;;;;;14.95;5.45;;;;;;;17.17;62.25;100709.03;7391794;19;20759;-59
2023/07/03 04:51:30;;;;;;;19.50;5.20;;;;;;;17.16;62.49;100700.16;7390415;19;20081;-52
2023/07/03 04:54:00;;;;;;;16.10;7.00;;;;;;;17.04;63.07;100712.13;7388153;19;20022;-55
2023/07/03 04:56:28;;;;;;;20.80;5.60;;;;;;;17.02;63.49;100708.78;7388888;19;20056;-58
2023/07/03 04:58:55;;;;;;;18.08;4.90;;;;;;;16.99;63.65;100717.94;7389379;19;20522;-60
2023/07/03 05:01:24;;;;;;;17.10;4.70;;;;;;;16.88;65.21;100717.34;7389631;19;20047;-60
2023/07/03 05:03:51;;;;;;;15.10;5.05;;;;;;;16.87;65.92;100715.69;7389287;19;20018;-60
2023/07/03 05:06:18;;;;;;;14.57;4.82;;;;;;;16.81;66.33;100715.28;7387143;19;20491;-59
2023/07/03 05:08:46;;;;;;;19.02;4.72;;;;;;;16.87;66.60;100719.19;7389696;19;20039;-58
2023/07/03 05:11:14;;;;;;;14.57;4.45;;;;;;;16.81;66.39;100717.97;7389197;19;20491;-57
2023/07/03 05:13:41;;;;;;;15.52;5.22;;;;;;;16.85;66.51;100709.63;7386073;19;20018;-58
2023/07/03 05:16:08;;;;;;;18.27;5.50;;;;;;;16.91;66.40;100717.03;7385925;19;20035;-55
2023/07/03 05:18:36;;;;;;;15.10;4.70;;;;;;;17.01;66.21;100721.28;7389402;19;20523;-54
2023/07/03 05:21:06;;;;;;;16.58;4.68;;;;;;;16.98;65.90;100715.41;7389079;19;20031;-59
2023/07/03 05:23:33;;;;;;;12.77;4.70;;;;;;;17.00;66.73;100726.81;7387453;19;20021;-58
2023/07/03 05:26:00;;;;;;;14.65;4.70;;;;;;;16.95;66.56;100729.13;7389876;19;20427;-58
2023/07/03 05:28:29;;;;;;;15.90;4.47;;;;;;;16.99;65.92;100725.13;7396475;19;20475;-59
2023/07/03 05:30:57;;;;;;;16.20;4.00;;;;;;;16.99;65.61;100733.16;7395924;19;20026;-60
2023/07/03 05:33:26;;;;;;;11.52;3.53;;;;;;;16.92;65.39;100734.78;7394263;19;20033;-59
2023/07/03 05:35:54;;;;;;;13.07;3.80;;;;;;;16.94;65.01;100736.31;7392586;19;20025;-58
2023/07/03 05:38:22;;;;;;;15.80;4.00;;;;;;;17.10;63.83;100734.75;7395511;19;20019;-59
2023/07/03 05:40:50;;;;;;;12.95;3.63;;;;;;;17.15;63.79;100735.13;7395576;19;20130;-58
2023/07/03 05:43:18;;;;;;;10.38;3.13;;;;;;;17.13;63.23;100737.94;7396217;19;20018;-58
2023/07/03 05:45:47;;;;;;;9.35;2.92;;;;;;;17.12;63.13;100738.09;7393051;19;20015;-58
2023/07/03 05:48:15;;;;;;;10.90;3.25;;;;;;;17.21;62.81;100746.03;7396556;19;20403;-58
2023/07/03 05:50:44;;;;;;;10.68;3.17;;;;;;;17.21;62.64;100739.84;7395189;19;20459;-58
2023/07/03 05:53:12;;;;;;;11.68;3.70;;;;;;;17.07;63.41;100740.41;7394112;19;20025;-55
2023/07/03 05:55:39;;;;;;;11.15;3.50;;;;;;;16.89;63.85;100737.75;7392739;19;20034;-58
2023/07/03 05:58:07;;;;;;;11.65;3.25;;;;;;;16.94;63.93;100751.50;7395386;19;20022;-57
2023/07/03 06:00:34;;;;;;;10.88;3.42;;;;;;;16.93;64.07;100764.03;7393701;19;20471;-57
2023/07/03 06:03:02;;;;;;;10.35;3.25;;;;;;;16.89;64.18;100751.13;7395568;19;20035;-56
2023/07/03 06:05:29;;;;;;;9.88;3.25;;;;;;;16.94;64.12;100754.16;7391053;19;20034;-56
2023/07/03 06:07:56;;;;;;;12.60;3.55;;;;;;;16.96;64.07;100758.38;7395108;19;20014;-58
2023/07/03 06:10:24;;;;;;;14.45;3.90;;;;;;;16.99;64.09;100762.59;7393563;19;20025;-55
2023/07/03 06:12:51;;;;;;;15.25;4.30;;;;;;;16.81;64.84;100758.06;7394077;19;20039;-51
2023/07/03 06:15:19;;;;;;;12.27;4.07;;;;;;;16.87;64.93;100771.84;7392130;19;20540;-54
2023/07/03 06:17:46;;;;;;;13.45;3.85;;;;;;;16.87;65.13;100764.66;7394914;19;20026;-56
2023/07/03 06:20:13;;;;;;;11.52;3.80;;;;;;;16.92;65.08;100762.34;7394516;19;20015;-55
2023/07/03 06:22:41;;;;;;;13.00;3.45;;;;;;;16.97;65.28;100761.88;7394295;19;20034;-56
2023/07/03 06:25:10;;;;;;;14.73;3.92;;;;;;;16.97;65.49;100765.41;7390866;19;20022;-58
2023/07/03 06:27:37;;;;;;;15.10;3.72;;;;;;;16.95;65.61;100758.53;7394405;19;20010;-58
2023/07/03 06:30:05;;;;;;;14.55;4.03;;;;;;;17.08;65.16;100766.16;7392990;19;20026;-58
2023/07/03 06:32:33;;;;;;;12.60;4.20;;;;;;;17.14;64.96;100766.38;7392956;19;20078;-58
2023/07/03 06:35:00;;;;;;;16.73;4.00;;;;;;;17.22;64.63;100769.13;7392326;19;20387;-58
2023/07/03 06:37:33;;;;;;;13.95;4.15;;;;;;;17.26;64.53;100770.50;7391898;19;20483;-58
2023/07/03 06:40:00;;;;;;;15.38;3.72;;;;;;;17.33;64.35;100772.56;7392309;19;20010;-58
2023/07/03 06:42:28;;;;;;;16.95;4.05;;;;;;;17.36;64.11;100773.09;7393542;19;20022;-57
2023/07/03 06:44:55;;;;;;;15.65;4.28;;;;;;;17.37;63.99;100779.28;7392026;19;20064;-59
2023/07/03 06:47:22;;;;;;;16.58;4.30;;;;;;;17.44;63.74;100775.81;7393231;19;20010;-59
2023/07/03 06:49:50;;;;;;;13.68;3.85;;;;;;;17.52;63.46;100777.69;7397084;19;20015;-58
2023/07/03 06:52:17;;;;;;;14.55;4.20;;;;;;;17.53;63.55;100788.25;7392787;19;20095;-57
2023/07/03 06:54:46;;;;;;;14.70;5.13;;;;;;;17.62;63.11;100783.78;7390733;19;20039;-57
2023/07/03 06:57:14;;;;;;;13.38;3.92;;;;;;;17.65;63.07;100777.28;7392779;19;20579;-58
2023/07/03 06:59:41;;;;;;;12.93;3.80;;;;;;;17.70;63.05;100778.47;7393363;19;20015;-58
2023/07/03 07:02:08;;;;;;;13.75;3.92;;;;;;;17.76;62.40;100769.00;7392081;19;20031;-59
2023/07/03 07:04:35;;;;;;;15.98;4.35;;;;;;;17.76;62.38;100772.50;7392620;19;20025;-58
2023/07/03 07:07:03;;;;;;;11.48;3.40;;;;;;;17.87;61.79;100757.16;7391081;19;20061;-58
2023/07/03 07:09:30;;;;;;;13.68;3.83;;;;;;;18.02;61.58;100772.47;7392204;19;20014;-57
2023/07/03 07:11:57;;;;;;;12.00;3.60;;;;;;;18.08;60.41;100767.47;7392481;19;20025;-57
2023/07/03 07:14:24;;;;;;;15.50;3.78;;;;;;;18.09;59.41;100769.16;7390198;19;20031;-58
2023/07/03 07:16:52;;;;;;;15.15;3.60;;;;;;;18.11;59.42;100776.00;7391884;19;20074;-59
2023/07/03 07:19:19;;;;;;;13.70;3.58;;;;;;;18.17;59.24;100786.09;7391923;19;20070;-58
2023/07/03 07:21:46;;;;;;;11.32;3.58;;;;;;;18.38;58.63;100779.47;7392155;19;20106;-58
2023/07/03 07:24:20;;;;;;;13.35;3.00;;;;;;;18.45;58.51;100788.53;7391190;19;20024;-56
2023/07/03 07:26:48;;;;;;;;;;;;;;;18.53;57.40;100783.19;7390547;19;20027;-57
2023/07/03 07:29:15;;;;;;;11.20;3.00;;;;;;;18.55;57.25;100783.88;7391428;19;19932;-58
2023/07/03 07:31:42;;;;;;;14.60;3.33;;;;;;;18.66;56.37;100777.34;7392116;19;20492;-58
2023/07/03 07:34:10;;;;;;;10.65;2.63;;;;;;;18.74;55.69;100777.41;7389764;19;20043;-59
2023/07/03 07:36:39;;;;;;;10.93;2.58;;;;;;;18.78;56.08;100777.91;7389510;19;20074;-58
2023/07/03 07:39:07;;;;;;;10.82;2.90;;;;;;;18.70;55.60;100778.72;7392121;19;20491;-58
2023/07/03 07:41:34;;;;;;;10.57;2.95;;;;;;;18.70;55.49;100776.03;7391605;19;20011;-57
2023/07/03 07:44:02;;;;;;;9.68;2.80;;;;;;;18.75;55.51;100779.91;7389724;19;20082;-58
2023/07/03 07:46:31;;;;;;;12.07;2.38;;;;;;;18.81;55.03;100777.56;7389528;19;20022;-58
2023/07/03 07:49:00;;;;;;;12.75;3.00;;;;;;;18.83;54.34;100778.25;7393382;19;20099;-58
2023/07/03 07:51:29;;;;;;;9.40;2.50;;;;;;;18.80;54.50;100792.81;7391078;19;20014;-58
2023/07/03 07:53:57;;;;;;;10.13;2.30;;;;;;;18.83;53.76;100771.03;7388921;19;20019;-57
2023/07/03 07:56:26;;;;;;;7.38;2.20;;;;;;;19.02;53.10;100785.97;7390353;19;20078;-56
2023/07/03 07:58:54;;;;;;;12.75;2.97;;;;;;;19.15;52.48;100785.47;7391659;19;20078;-57
2023/07/03 08:01:21;;;;;;;9.70;2.60;;;;;;;19.27;51.56;100789.50;7390468;19;20015;-59
2023/07/03 08:03:49;;;;;;;9.98;2.50;;;;;;;19.32;51.65;100792.50;7391514;19;20078;-59
2023/07/03 08:06:16;;;;;;;10.48;2.42;;;;;;;19.40;51.38;100775.56;7390761;19;20378;-59
2023/07/03 08:08:44;;;;;;;12.30;3.33;;;;;;;19.24;51.06;100784.47;7390615;19;20032;-59
2023/07/03 08:11:11;;;;;;;14.10;4.43;;;;;;;19.19;51.02;100793.03;7390838;19;20031;-58
2023/07/03 08:13:40;;;;;;;13.40;2.50;;;;;;;19.14;49.58;100794.53;7389061;19;20029;-58
2023/07/03 08:16:09;;;;;;;11.88;2.72;;;;;;;19.10;50.36;100785.13;7387696;19;20014;-58
2023/07/03 08:18:37;;;;;;;13.75;2.90;;;;;;;19.21;50.12;100787.47;7390176;19;20015;-58
2023/07/03 08:21:04;;;;;;;10.45;2.65;;;;;;;19.36;50.55;100798.38;7390266;19;20007;-58
2023/07/03 08:23:32;;;;;;;10.32;2.50;;;;;;;19.34;50.15;100787.78;7388951;19;20035;-58
2023/07/03 08:26:00;;;;;;;9.52;2.55;;;;;;;19.28;49.96;100793.03;7388265;19;20046;-58
2023/07/03 08:28:29;;;;;;;7.70;2.05;;;;;;;19.34;49.05;100790.47;7389891;19;20031;-57
2023/07/03 08:31:00;;;;;;;8.88;2.00;;;;;;;19.44;48.79;100787.63;7389766;19;20018;-57
2023/07/03 08:33:28;;;;;;;8.57;2.10;;;;;;;19.46;48.17;100799.06;7388977;19;20043;-58
2023/07/03 08:35:55;;;;;;;11.35;2.08;;;;;;;19.27;48.53;100794.00;7388436;19;20015;-58
2023/07/03 08:38:25;;;;;;;7.10;1.88;;;;;;;19.16;48.42;100792.53;7388398;19;20022;-60
2023/07/03 08:40:58;;;;;;;8.55;2.03;;;;;;;19.14;48.78;100792.69;7390157;19;20093;-59
2023/07/03 08:43:37;;;;;;;8.03;2.03;;;;;;;19.19;48.19;100784.97;7389869;19;20043;-58
2023/07/03 08:46:10;;;;;;;8.65;2.08;;;;;;;19.32;48.62;100789.81;7387241;19;20040;-59
2023/07/03 08:48:39;;;;;;;8.15;2.13;;;;;;;19.45;48.13;100782.06;7391070;19;20014;-57
2023/07/03 08:51:14;;;;;;;9.27;2.20;;;;;;;19.53;47.70;100789.28;7388208;19;20018;-58
2023/07/03 08:53:43;;;;;;;7.32;1.95;;;;;;;19.90;46.99;100791.41;7388877;19;20480;-59
2023/07/03 08:56:13;;;;;;;8.13;2.20;;;;;;;20.07;46.11;100794.91;7386396;19;20023;-58
2023/07/03 08:58:41;;;;;;;8.20;2.10;;;;;;;20.08;46.03;100779.59;7389425;19;20074;-58
2023/07/03 09:01:17;;;;;;;9.05;2.63;;;;;;;20.07;45.57;100786.84;7392738;19;20034;-57
2023/07/03 09:04:15;;;;;;;11.55;2.33;;;;;;;19.91;45.95;100790.41;7395365;19;20054;-58
2023/07/03 09:06:42;;;;;;;9.75;2.10;;;;;;;19.67;47.65;100793.16;7395388;19;20133;-58
2023/07/03 09:09:28;;;;;;;14.07;2.42;;;;;;;19.59;48.04;100798.53;7397217;19;20029;-58
2023/07/03 09:12:04;;;;;;;10.43;2.05;;;;;;;19.43;49.13;100799.41;7396442;19;20018;-58
2023/07/03 09:14:43;;;;;;;8.48;2.17;;;;;;;19.38;49.00;100801.72;7394782;19;20078;-58
2023/07/03 09:17:12;;;;;;;10.02;2.35;;;;;;;19.22;48.97;100806.09;7394444;19;20015;-57
2023/07/03 09:19:44;;;;;;;9.32;2.20;;;;;;;19.15;49.44;100805.09;7395279;19;20022;-58
2023/07/03 09:22:48;;;;;;;10.93;2.10;;;;;;;19.19;49.67;100824.38;7395960;19;20022;-58
2023/07/03 09:27:54;;;;;;;10.27;2.53;;;;;;;19.27;49.17;100819.03;7401357;19;20345;-57
2023/07/03 09:30:22;;;;;;;12.05;2.60;;;;;;;19.34;49.15;100821.88;7396962;19;20023;-55
2023/07/03 09:32:50;;;;;;;8.25;2.15;;;;;;;19.14;49.86;100835.63;7396026;19;20026;-57
2023/07/03 09:35:20;;;;;;;12.55;3.28;;;;;;;18.91;51.54;100843.50;7391573;19;20021;-56
2023/07/03 09:37:59;;;;;;;10.70;2.70;;;;;;;18.72;52.81;100844.63;7394281;19;20018;-56
2023/07/03 09:40:34;;;;;;;10.68;3.00;;;;;;;18.68;53.15;100842.41;7391361;19;20014;-56
2023/07/03 09:43:02;;;;;;;7.43;2.05;;;;;;;18.61;52.47;100839.53;7393885;19;20118;-56
2023/07/03 09:45:33;;;;;;;7.50;1.90;;;;;;;18.70;52.81;100849.34;7392935;19;20022;-58
2023/07/03 09:48:09;;;;;;;6.20;1.60;;;;;;;18.87;52.94;100844.81;7396424;19;20060;-58
2023/07/03 09:50:39;;;;;;;8.20;2.05;;;;;;;18.92;52.21;100847.84;7394886;19;20014;-58
2023/07/03 09:53:26;;;;;;;9.60;1.90;;;;;;;19.01;51.57;100847.88;7395356;19;20499;-58
2023/07/03 09:55:56;;;;;;;10.48;2.28;;;;;;;18.91;51.75;100854.22;7392887;19;20427;-60
2023/07/03 09:58:26;;;;;;;11.02;2.25;;;;;;;18.79;52.36;100850.19;7395545;19;20019;-58
2023/07/03 10:00:55;;;;;;;8.43;2.10;;;;;;;18.78;53.14;100853.88;7395897;19;20019;-56
2023/07/03 10:03:28;;;;;;;7.25;2.05;;;;;;;18.92;52.45;100849.69;7395368;19;20022;-57
2023/07/03 10:06:10;;;;;;;7.50;1.70;;;;;;;19.22;52.11;100850.91;7394584;19;20018;-57
2023/07/03 10:08:50;;;;;;;8.77;1.70;;;;;;;19.54;50.81;100850.09;7394874;19;20086;-57
2023/07/03 10:12:01;;;;;;;7.15;1.90;;;;;;;19.74;50.85;100855.13;7395746;19;20033;-57
2023/07/03 10:14:51;;;;;;;6.78;1.90;;;;;;;19.78;49.97;100846.56;7392045;19;20010;-55
2023/07/03 10:17:28;;;;;;;8.25;2.20;;;;;;;19.48;51.02;100845.38;7392218;19;20098;-56
2023/07/03 10:20:03;;;;;;;10.85;2.50;;;;;;;19.36;50.79;100850.25;7395331;19;20057;-55
2023/07/03 10:22:31;;;;;;;6.70;1.80;;;;;;;19.38;51.46;100853.59;7394166;19;20018;-58
2023/07/03 10:25:04;;;;;;;8.57;1.88;;;;;;;19.52;51.47;100856.63;7394026;19;20019;-52
2023/07/03 10:27:34;;;;;;;7.78;1.88;;;;;;;19.45;51.41;100862.66;7392663;19;20535;-56
2023/07/03 10:30:04;;;;;;;10.02;2.10;;;;;;;19.25;51.00;100861.31;7394397;19;20028;-54
2023/07/03 10:32:36;;;;;;;9.43;2.00;;;;;;;18.94;49.80;100894.16;7394966;19;20014;-55
2023/07/03 10:35:08;;;;;;;9.15;2.10;;;;;;;18.59;54.15;100937.28;7391782;19;20044;-57
2023/07/03 10:37:50;;;;;;;9.40;2.30;;;;;;;18.18;56.67;100916.44;7392809;19;20022;-57
2023/07/03 10:40:27;;;;;;;11.25;2.83;;;;;;;17.97;57.72;100916.84;7394053;19;20539;-56
2023/07/03 10:42:59;;;;;;;10.27;2.53;;;;;;;17.94;57.11;100909.09;7394314;19;20018;-57
2023/07/03 10:45:31;;;;;;;12.77;3.05;;;;;;;17.91;56.06;100900.53;7391293;19;20046;-58
2023/07/03 10:48:05;;;;;;;10.48;2.88;;;;;;;17.87;55.45;100897.31;7393977;19;20039;-56
2023/07/03 10:50:40;;;;;;;13.57;3.78;;;;;;;17.96;54.84;100900.88;7393118;19;20491;-56
2023/07/03 10:53:07;;;;;;;13.65;3.22;;;;;;;18.03;54.72;100894.75;7398598;19;20018;-57
2023/07/03 10:55:56;;;;;;;10.88;2.45;;;;;;;18.16;54.95;100897.00;7391318;19;20034;-56
2023/07/03 10:58:23;;;;;;;9.35;2.40;;;;;;;18.19;54.95;100888.63;7393942;19;20022;-58
2023/07/03 11:00:58;;;;;;;8.02;2.10;;;;;;;18.34;54.43;100893.41;7393331;19;20371;-56
2023/07/03 11:03:49;;;;;;;10.55;2.10;;;;;;;18.52;54.54;100894.16;7393656;19;20015;-54
2023/07/03 11:06:59;;;;;;;5.32;1.30;;;;;;;18.78;53.72;100891.44;7388695;19;20030;-57
2023/07/03 11:09:56;;;;;;;5.40;1.40;;;;;;;18.91;53.91;100902.53;7393610;19;20070;-58
2023/07/03 11:12:51;;;;;;;7.40;1.73;;;;;;;18.93;54.26;100886.28;7392725;19;20388;-56
2023/07/03 11:15:44;;;;;;;5.68;1.50;;;;;;;18.74;54.83;100901.66;7391387;19;20507;-56
2023/07/03 11:18:38;;;;;;;8.90;1.50;;;;;;;18.55;55.23;100899.22;7392918;19;20491;-56
2023/07/03 11:21:47;;;;;;;6.00;1.55;;;;;;;18.44;55.56;100899.50;7390824;19;20014;-57
2023/07/03 11:24:29;;;;;;;8.45;1.75;;;;;;;18.38;55.68;100897.44;7391662;19;20019;-57
2023/07/03 11:27:07;;;;;;;5.90;1.65;;;;;;;18.45;55.41;100901.16;7389873;19;20028;-57
2023/07/03 11:29:37;;;;;;;8.85;1.98;;;;;;;18.52;54.62;100905.72;7392729;19;20086;-56
2023/07/03 11:32:07;;;;;;;7.75;1.50;;;;;;;18.71;53.24;100896.63;7392334;19;20018;-56
2023/07/03 11:34:35;;;;;;;7.03;1.60;;;;;;;18.96;52.26;100891.31;7391134;19;20082;-56
2023/07/03 11:37:34;;;;;;;4.53;1.20;;;;;;;19.04;51.54;100902.09;7390202;19;20026;-57